createdAt,value
2022-10-02T00:03:17.469Z,99078.12
2022-10-02T00:05:53.981Z,99070.20
2022-10-02T00:07:00.950Z,99070.42
2022-10-02T00:08:28.734Z,99071.85
2022-10-02T00:25:13.370Z,99022.14
2022-10-02T00:26:31.438Z,99018.61
2022-10-02T00:28:10.302Z,99029.41
2022-10-02T00:29:24.019Z,99029.41
2022-10-02T00:30:31.330Z,99030.05
2022-10-02T00:31:47.343Z,99037.73
2022-10-02T00:34:30.636Z,99029.00
2022-10-02T01:04:15.276Z,98950.20
2022-10-02T01:08:15.753Z,98929.83
2022-10-02T01:09:20.174Z,98932.95
2022-10-02T01:10:33.994Z,98934.22
2022-10-02T03:13:19.688Z,98695.80
2022-10-02T03:14:33.841Z,98694.16
2022-10-02T03:15:46.353Z,98694.16
2022-10-02T03:16:58.971Z,98700.98
2022-10-02T03:18:23.539Z,98708.06
2022-10-02T03:19:41.105Z,98705.58
2022-10-02T03:21:13.775Z,98719.28
2022-10-02T03:22:21.842Z,98739.39
2022-10-02T03:23:41.069Z,98739.39
2022-10-02T03:24:47.304Z,98738.38
2022-10-02T03:26:01.516Z,98708.86
2022-10-02T03:27:16.588Z,98695.38
2022-10-02T03:29:12.304Z,98695.38
2022-10-02T04:24:30.454Z,98614.25
2022-10-02T04:42:28.444Z,98562.36
2022-10-02T04:44:02.486Z,98568.17
2022-10-02T04:45:27.198Z,98560.67
2022-10-02T04:46:48.628Z,98564.23
2022-10-02T04:48:04.426Z,98564.23
2022-10-02T04:49:27.642Z,98566.08
2022-10-02T04:50:58.743Z,98571.07
2022-10-02T04:52:14.185Z,98571.07
2022-10-02T05:31:46.192Z,98489.89
2022-10-02T05:33:03.350Z,98483.64
2022-10-02T05:34:28.314Z,98477.19
2022-10-02T05:35:57.973Z,98477.19
2022-10-02T05:37:15.514Z,98476.98
2022-10-02T05:38:31.395Z,98478.83
2022-10-02T05:57:23.322Z,98452.06
2022-10-02T07:26:43.301Z,98362.63
2022-10-02T07:29:41.564Z,98358.44
2022-10-02T07:31:00.070Z,98359.26
2022-10-02T07:33:52.442Z,98362.57
2022-10-02T07:37:02.106Z,98362.57
2022-10-02T07:38:50.838Z,98359.33
2022-10-02T07:43:34.341Z,98354.37
2022-10-02T07:44:51.530Z,98344.63
2022-10-02T07:51:03.338Z,98340.28
2022-10-02T09:02:47.966Z,98261.67
2022-10-02T09:04:42.431Z,98261.67
2022-10-02T09:09:41.442Z,98250.87
2022-10-02T09:10:53.418Z,98248.68
2022-10-02T09:12:27.962Z,98248.68
2022-10-02T09:13:37.957Z,98250.02
2022-10-02T09:15:06.251Z,98254.65
2022-10-02T09:16:19.489Z,98256.64
2022-10-02T09:17:36.676Z,98256.64
2022-10-02T09:18:49.585Z,98251.06
2022-10-02T09:20:15.709Z,98254.36
2022-10-02T09:21:25.695Z,98268.17
2022-10-02T09:22:39.697Z,98263.47
2022-10-02T09:24:11.640Z,98266.67
2022-10-02T09:25:34.340Z,98266.67
2022-10-02T09:26:55.668Z,98262.86
2022-10-02T09:28:21.805Z,98256.43
2022-10-02T09:29:40.614Z,98256.43
2022-10-02T09:31:05.423Z,98255.77
2022-10-02T09:32:24.057Z,98263.91
2022-10-02T09:34:07.043Z,98263.91
2022-10-02T09:35:30.767Z,98265.55
2022-10-02T09:36:46.588Z,98265.06
2022-10-02T10:28:16.954Z,98258.53
2022-10-02T10:29:29.549Z,98258.08
2022-10-02T10:31:05.311Z,98259.38
2022-10-02T10:34:33.959Z,98268.44
2022-10-02T10:35:56.046Z,98271.83
2022-10-02T10:37:20.712Z,98262.80
2022-10-02T10:38:53.019Z,98262.80
2022-10-02T10:40:20.156Z,98271.59
2022-10-02T10:41:43.568Z,98273.60
2022-10-02T10:43:07.587Z,98265.23
2022-10-02T10:44:57.303Z,98265.23
2022-10-02T11:43:35.044Z,98264.49
2022-10-02T11:44:51.020Z,98266.16
2022-10-02T11:46:03.565Z,98257.20
2022-10-02T11:47:36.190Z,98256.37
2022-10-02T11:49:04.873Z,98256.37
2022-10-02T11:50:48.213Z,98264.49
2022-10-02T12:30:09.617Z,98271.27
2022-10-02T12:31:42.081Z,98266.90
2022-10-02T12:33:00.769Z,98260.67
2022-10-02T12:34:13.012Z,98260.67
2022-10-02T14:17:48.315Z,98295.84
2022-10-02T14:19:04.080Z,98293.36
2022-10-02T14:20:33.150Z,98293.36
2022-10-02T14:21:45.741Z,98272.83
2022-10-02T14:53:57.771Z,98345.73
2022-10-02T15:54:25.404Z,98385.08
2022-10-02T15:55:45.839Z,98390.27
2022-10-02T15:57:29.858Z,98390.27
2022-10-02T17:28:17.412Z,98431.37
2022-10-02T17:29:39.715Z,98436.98
2022-10-02T17:30:58.603Z,98436.98
2022-10-02T17:32:02.646Z,98436.98
2022-10-02T17:33:20.038Z,98442.75
2022-10-02T17:34:27.072Z,98446.91
2022-10-02T17:35:45.048Z,98444.80
2022-10-02T17:38:36.050Z,98436.20
2022-10-02T17:39:48.692Z,98441.32
2022-10-02T17:40:58.349Z,98438.78
2022-10-02T17:42:36.925Z,98451.20
2022-10-02T17:43:43.774Z,98449.34
2022-10-02T17:45:02.040Z,98449.34
2022-10-02T17:46:30.170Z,98444.80
2022-10-02T17:47:42.528Z,98442.68
2022-10-02T17:48:58.144Z,98442.68
2022-10-02T17:50:36.376Z,98455.46
2022-10-02T17:51:53.275Z,98441.82
2022-10-02T17:53:23.655Z,98460.22
2022-10-02T17:54:44.288Z,98455.85
2022-10-02T17:56:22.145Z,98455.85
2022-10-02T17:57:31.658Z,98436.77
2022-10-02T17:58:44.088Z,98436.77
2022-10-02T18:00:13.505Z,98444.18
2022-10-02T18:01:38.684Z,98456.20
2022-10-02T18:02:54.450Z,98456.59
2022-10-02T18:04:10.237Z,98456.59
2022-10-02T18:05:28.870Z,98448.55
2022-10-02T18:06:41.428Z,98467.94
2022-10-02T18:08:06.298Z,98452.88
2022-10-02T18:09:21.958Z,98458.24
2022-10-02T18:10:42.458Z,98460.75
2022-10-02T18:12:00.656Z,98454.73
2022-10-02T18:13:07.502Z,98454.73
2022-10-02T18:14:29.575Z,98458.89
2022-10-02T18:15:44.179Z,98464.90
2022-10-02T18:17:13.226Z,98450.84
2022-10-02T18:18:25.611Z,98450.84
2022-10-02T18:19:44.358Z,98451.48
2022-10-02T18:21:00.358Z,98471.02
2022-10-02T18:22:13.716Z,98465.22
2022-10-02T18:23:23.586Z,98465.22
2022-10-02T18:24:51.298Z,98470.37
2022-10-02T18:26:06.843Z,98473.05
2022-10-02T18:27:28.353Z,98473.05
2022-10-02T18:28:50.235Z,98462.53
2022-10-02T18:30:07.628Z,98472.62
2022-10-02T18:31:22.722Z,98470.14
2022-10-02T18:32:26.140Z,98482.53
2022-10-02T18:33:48.530Z,98472.18
2022-10-02T18:35:06.148Z,98482.34
2022-10-02T18:36:30.845Z,98477.80
2022-10-02T18:37:55.896Z,98477.80
2022-10-02T18:39:20.786Z,98470.50
2022-10-02T18:40:39.514Z,98480.23
2022-10-02T18:41:58.822Z,98479.41
2022-10-02T18:43:17.501Z,98472.92
2022-10-02T18:44:32.968Z,98493.17
2022-10-02T18:45:41.927Z,98455.15
2022-10-02T18:47:12.786Z,98475.34
2022-10-02T18:48:22.601Z,98475.34
2022-10-02T18:49:48.602Z,98472.20
2022-10-02T18:51:07.359Z,98487.67
2022-10-02T18:52:34.868Z,98487.67
2022-10-02T18:53:59.795Z,98478.98
2022-10-02T18:55:09.335Z,98479.36
2022-10-02T18:56:13.263Z,98473.14
2022-10-02T18:57:24.220Z,98483.87
2022-10-02T18:58:33.765Z,98483.87
2022-10-02T18:59:58.403Z,98478.89
2022-10-02T19:01:04.478Z,98477.24
2022-10-02T19:02:39.108Z,98473.53
2022-10-02T19:03:48.606Z,98470.84
2022-10-02T19:04:55.715Z,98473.91
2022-10-02T19:06:18.791Z,98473.91
2022-10-02T19:07:31.778Z,98473.27
2022-10-02T19:08:57.998Z,98477.54
2022-10-02T19:10:32.242Z,98475.72
2022-10-02T19:11:45.049Z,98478.40
2022-10-02T19:14:14.658Z,98475.72
2022-10-02T19:15:14.765Z,98475.72
2022-10-02T19:16:26.908Z,98479.60
2022-10-02T19:17:17.318Z,98485.41
2022-10-02T19:17:32.542Z,98473.39
2022-10-02T19:18:38.244Z,98473.39
2022-10-02T19:19:42.732Z,98474.86
2022-10-02T19:20:55.587Z,98473.39
2022-10-02T19:22:05.733Z,98471.35
2022-10-02T19:23:12.749Z,98471.35
2022-10-02T19:24:19.708Z,98468.94
2022-10-02T19:26:50.872Z,98466.20
2022-10-02T19:28:05.138Z,98461.39
2022-10-02T19:29:26.571Z,98463.42
2022-10-02T19:30:33.646Z,98461.77
2022-10-02T19:31:40.113Z,98461.77
2022-10-02T19:32:00.291Z,98466.20
2022-10-02T19:32:49.027Z,98463.98
2022-10-02T19:33:56.259Z,98463.98
2022-10-02T19:35:15.043Z,98464.58
2022-10-02T19:36:22.625Z,98467.42
2022-10-02T19:37:26.629Z,98467.42
2022-10-02T19:38:33.573Z,98462.89
2022-10-02T19:39:40.247Z,98461.89
2022-10-02T19:40:48.125Z,98464.95
2022-10-02T19:41:55.090Z,98462.06
2022-10-02T19:43:03.672Z,98463.92
2022-10-02T19:44:22.396Z,98461.63
2022-10-02T19:45:31.080Z,98463.27
2022-10-02T19:46:40.784Z,98463.27
2022-10-02T19:47:47.831Z,98478.36
2022-10-02T19:48:57.429Z,98463.27
2022-10-02T19:50:05.185Z,98463.27
2022-10-02T19:51:17.529Z,98472.73
2022-10-02T19:52:39.652Z,98469.02
2022-10-02T19:53:52.597Z,98475.41
2022-10-02T19:54:58.455Z,98468.75
2022-10-02T19:56:37.324Z,98469.77
2022-10-02T19:57:18.797Z,98469.77
2022-10-02T19:58:32.960Z,98476.78
2022-10-02T19:59:39.857Z,98476.78
2022-10-02T20:00:51.674Z,98469.77
2022-10-02T20:01:59.975Z,98465.80
2022-10-02T20:03:06.954Z,98467.27
2022-10-02T20:04:13.821Z,98467.48
2022-10-02T20:05:23.392Z,98466.45
2022-10-02T20:06:33.251Z,98468.03
2022-10-02T20:07:41.117Z,98449.71
2022-10-02T20:08:53.358Z,98467.00
2022-10-02T20:10:00.316Z,98463.11
2022-10-02T20:11:14.667Z,98459.44
2022-10-02T20:12:26.718Z,98461.91
2022-10-02T20:13:37.083Z,98461.91
2022-10-02T20:14:46.330Z,98458.41
2022-10-02T20:15:57.643Z,98456.10
2022-10-02T20:17:03.059Z,98460.16
2022-10-02T20:18:08.594Z,98460.16
2022-10-02T20:19:21.565Z,98454.19
2022-10-02T20:20:25.549Z,98454.19
2022-10-02T20:21:41.232Z,98455.66
2022-10-02T20:22:51.687Z,98448.17
2022-10-02T20:23:58.185Z,98448.17
2022-10-02T20:25:08.045Z,98457.24
2022-10-02T20:41:30.203Z,98442.47
2022-10-02T20:46:25.159Z,98448.11
2022-10-02T20:53:56.966Z,98440.52
2022-10-02T20:55:14.742Z,98440.52
2022-10-02T20:56:47.111Z,98451.23
2022-10-02T20:58:18.247Z,98451.23
2022-10-02T20:59:25.412Z,98446.08
2022-10-02T21:00:52.204Z,98446.25
2022-10-02T21:02:37.128Z,98443.41
2022-10-02T21:04:17.072Z,98441.72
2022-10-02T21:05:31.465Z,98448.76
2022-10-02T21:07:13.022Z,98450.58
2022-10-02T21:08:36.270Z,98451.44
2022-10-02T21:10:01.409Z,98448.76
2022-10-02T21:11:26.437Z,98448.76
2022-10-02T21:12:57.511Z,98447.55
2022-10-02T21:14:17.636Z,98445.05
2022-10-02T21:15:51.752Z,98448.11
2022-10-02T21:17:01.775Z,98445.42
2022-10-02T21:18:28.192Z,98440.07
2022-10-02T21:19:50.497Z,98443.78
2022-10-02T21:21:05.080Z,98445.60
2022-10-02T21:22:29.270Z,98437.77
2022-10-02T21:23:49.286Z,98435.84
2022-10-02T21:25:17.279Z,98437.66
2022-10-02T21:26:25.955Z,98444.50
2022-10-02T21:27:56.840Z,98443.50
2022-10-02T21:29:34.081Z,98434.44
2022-10-02T21:31:01.942Z,98438.14
2022-10-02T21:32:31.902Z,98445.16
2022-10-02T21:33:41.934Z,98445.80
2022-10-02T21:34:50.577Z,98447.83
2022-10-02T21:36:17.099Z,98437.12
2022-10-02T21:37:37.511Z,98443.50
2022-10-02T21:38:59.116Z,98437.12
2022-10-02T21:40:24.015Z,98430.11
2022-10-02T21:41:40.933Z,98430.11
2022-10-02T21:43:03.762Z,98435.47
2022-10-02T21:44:25.060Z,98435.47
2022-10-02T21:45:39.210Z,98429.08
2022-10-02T21:47:07.045Z,98429.45
2022-10-02T21:48:32.128Z,98428.43
2022-10-02T21:49:56.667Z,98432.13
2022-10-02T21:51:36.879Z,98423.66
2022-10-02T21:53:17.509Z,98434.54
2022-10-02T21:54:48.449Z,98437.87
2022-10-02T21:57:41.337Z,98438.24
2022-10-02T21:58:54.023Z,98432.89
2022-10-02T22:00:14.186Z,98434.91
2022-10-02T22:01:42.682Z,98438.24
2022-10-02T22:02:59.021Z,98434.91
2022-10-02T22:04:27.254Z,98435.08
2022-10-02T22:05:41.650Z,98435.08
2022-10-02T22:07:11.330Z,98420.42
2022-10-02T22:08:18.372Z,98424.09
2022-10-02T22:09:33.950Z,98420.42
2022-10-02T22:10:58.569Z,98424.09
2022-10-02T22:12:10.947Z,98427.62
2022-10-02T22:13:33.559Z,98427.62
2022-10-02T22:14:47.536Z,98429.93
2022-10-02T22:15:56.692Z,98432.41
2022-10-02T22:17:38.284Z,98431.58
2022-10-02T22:19:00.567Z,98429.66
2022-10-02T22:20:25.351Z,98430.92
2022-10-02T22:21:45.725Z,98426.43
2022-10-02T22:23:10.380Z,98426.43
2022-10-02T22:24:20.134Z,98428.25
2022-10-02T22:25:39.249Z,98428.25
2022-10-02T22:27:09.093Z,98426.59
2022-10-02T22:28:55.591Z,98429.11
2022-10-02T22:29:49.970Z,98431.13
2022-10-02T22:30:59.712Z,98431.13
2022-10-02T22:32:25.105Z,98422.44
2022-10-02T22:34:05.271Z,98418.56
2022-10-02T22:35:41.188Z,98414.86
2022-10-02T22:36:53.927Z,98414.86
2022-10-02T22:38:16.071Z,98426.59
2022-10-02T22:39:35.184Z,98416.72
2022-10-02T22:40:43.994Z,98420.22
2022-10-02T22:41:59.743Z,98422.89
2022-10-02T22:43:06.861Z,98423.75
2022-10-02T22:44:52.684Z,98428.73
2022-10-02T22:46:39.022Z,98431.20
2022-10-02T22:47:17.328Z,98428.73
2022-10-02T22:48:32.047Z,98427.70
2022-10-02T22:51:21.796Z,98423.83
2022-10-02T22:52:46.500Z,98423.83
2022-10-02T22:53:16.121Z,98416.82
2022-10-02T22:54:07.132Z,98425.47
2022-10-02T22:55:19.743Z,98418.47
2022-10-02T22:56:36.519Z,98407.31
2022-10-02T22:57:53.873Z,98417.64
2022-10-02T22:59:12.043Z,98415.14
2022-10-02T23:00:31.749Z,98401.95
2022-10-02T23:01:26.102Z,98401.95
2022-10-02T23:02:37.874Z,98412.19
2022-10-02T23:04:38.641Z,98411.73
2022-10-02T23:51:33.270Z,98397.31
2022-10-02T23:52:44.648Z,98400.00
2022-10-02T23:54:16.222Z,98403.33
